createdAt,value
2018-04-30T00:00:23.045Z,17.64
2018-04-30T00:01:22.791Z,17.66
2018-04-30T00:02:22.843Z,17.66
2018-04-30T00:03:22.810Z,17.71
2018-04-30T00:04:22.774Z,17.67
2018-04-30T00:05:22.887Z,17.61
2018-04-30T00:06:22.793Z,17.63
2018-04-30T00:07:22.775Z,17.67
2018-04-30T00:08:22.809Z,17.63
2018-04-30T00:09:22.756Z,17.64
2018-04-30T00:10:23.155Z,17.71
2018-04-30T00:11:22.779Z,17.64
2018-04-30T00:12:22.797Z,17.64
2018-04-30T00:13:22.804Z,17.56
2018-04-30T00:14:22.846Z,17.54
2018-04-30T00:15:22.847Z,17.53
2018-04-30T00:16:22.839Z,17.52
2018-04-30T00:17:22.863Z,17.54
2018-04-30T00:18:22.950Z,17.52
2018-04-30T00:19:22.875Z,17.44
2018-04-30T00:20:22.800Z,17.46
2018-04-30T00:21:22.800Z,17.44
2018-04-30T00:22:22.855Z,17.37
2018-04-30T00:23:22.899Z,17.36
2018-04-30T00:24:22.836Z,17.35
2018-04-30T00:25:22.892Z,17.37
2018-04-30T00:26:22.872Z,17.33
2018-04-30T00:27:22.880Z,17.36
2018-04-30T00:28:22.869Z,17.29
2018-04-30T00:29:22.819Z,17.27
2018-04-30T00:30:22.859Z,17.33
2018-04-30T00:31:22.777Z,17.33
2018-04-30T00:32:22.842Z,17.29
2018-04-30T00:33:22.952Z,17.23
2018-04-30T00:34:22.880Z,17.19
2018-04-30T00:35:22.853Z,17.21
2018-04-30T00:36:22.858Z,17.22
2018-04-30T00:37:22.790Z,17.18
2018-04-30T00:38:22.803Z,17.21
2018-04-30T00:39:22.914Z,17.23
2018-04-30T00:40:22.901Z,17.16
2018-04-30T00:41:22.809Z,17.14
2018-04-30T00:42:22.791Z,17.14
2018-04-30T00:43:22.817Z,17.09
2018-04-30T00:44:22.888Z,17.18
2018-04-30T00:45:22.834Z,17.18
2018-04-30T00:46:22.824Z,17.23
2018-04-30T00:47:22.811Z,17.21
2018-04-30T00:48:22.790Z,17.19
2018-04-30T00:49:22.898Z,17.18
2018-04-30T00:50:22.853Z,17.21
2018-04-30T00:51:22.835Z,17.18
2018-04-30T00:52:22.811Z,17.14
2018-04-30T00:53:22.871Z,17.11
2018-04-30T00:54:22.858Z,17.08
2018-04-30T00:55:22.827Z,16.92
2018-04-30T00:56:22.876Z,16.95
2018-04-30T00:57:22.814Z,17.05
2018-04-30T00:58:22.929Z,17.01
2018-04-30T00:59:22.784Z,16.88
2018-04-30T01:00:22.752Z,16.87
2018-04-30T01:01:22.816Z,16.87
2018-04-30T01:02:22.832Z,16.9
2018-04-30T01:03:23.053Z,16.92
2018-04-30T01:04:22.792Z,16.91
2018-04-30T01:05:22.777Z,16.88
2018-04-30T01:06:22.981Z,16.86
2018-04-30T01:07:22.923Z,16.8
2018-04-30T01:08:22.801Z,16.73
2018-04-30T01:09:22.817Z,16.7
2018-04-30T01:10:22.849Z,16.68
2018-04-30T01:11:22.841Z,16.64
2018-04-30T01:12:22.802Z,16.67
2018-04-30T01:13:22.779Z,16.67
2018-04-30T01:14:22.795Z,16.64
2018-04-30T01:15:22.748Z,16.62
2018-04-30T01:16:22.762Z,16.66
2018-04-30T01:17:22.760Z,16.59
2018-04-30T01:18:22.812Z,16.59
2018-04-30T01:19:22.848Z,16.57
2018-04-30T01:20:22.820Z,16.57
2018-04-30T01:21:22.779Z,16.52
2018-04-30T01:22:22.871Z,16.54
2018-04-30T01:23:22.836Z,16.57
2018-04-30T01:24:22.792Z,16.6
2018-04-30T01:25:22.802Z,16.62
2018-04-30T01:26:22.792Z,16.57
2018-04-30T01:27:22.761Z,16.6
2018-04-30T01:28:22.821Z,16.57
2018-04-30T01:29:22.801Z,16.57
2018-04-30T01:30:22.795Z,16.57
2018-04-30T01:31:22.851Z,16.57
2018-04-30T01:32:22.755Z,16.56
2018-04-30T01:33:22.874Z,16.49
2018-04-30T01:34:22.762Z,16.45
2018-04-30T01:35:22.750Z,16.42
2018-04-30T01:36:22.844Z,16.4
2018-04-30T01:37:22.809Z,16.43
2018-04-30T01:38:22.824Z,16.42
2018-04-30T01:39:22.921Z,16.45
2018-04-30T01:40:22.765Z,16.42
2018-04-30T01:41:23.165Z,16.42
2018-04-30T01:42:22.763Z,16.39
2018-04-30T01:43:22.753Z,16.35
2018-04-30T01:44:22.849Z,16.33
2018-04-30T01:45:22.841Z,16.39
2018-04-30T01:46:22.815Z,16.37
2018-04-30T01:47:22.941Z,16.33
2018-04-30T01:48:22.813Z,16.36
2018-04-30T01:49:22.806Z,16.33
2018-04-30T01:50:22.811Z,16.26
2018-04-30T01:51:22.816Z,16.32
2018-04-30T01:52:22.891Z,16.28
2018-04-30T01:53:22.846Z,16.29
2018-04-30T01:54:22.817Z,16.29
2018-04-30T01:55:22.855Z,16.33
2018-04-30T01:56:22.932Z,16.25
2018-04-30T01:57:22.815Z,16.25
2018-04-30T01:58:22.821Z,16.25
2018-04-30T01:59:22.788Z,16.22
2018-04-30T02:00:22.790Z,16.21
2018-04-30T02:01:22.801Z,16.22
2018-04-30T02:02:22.799Z,16.21
2018-04-30T02:03:22.882Z,16.18
2018-04-30T02:04:22.808Z,16.16
2018-04-30T02:05:22.984Z,16.21
2018-04-30T02:06:22.790Z,16.16
2018-04-30T02:07:22.780Z,16.21
2018-04-30T02:08:22.798Z,16.19
2018-04-30T02:09:22.835Z,16.21
2018-04-30T02:10:22.832Z,16.11
2018-04-30T02:11:22.899Z,16.08
2018-04-30T02:12:22.787Z,16.05
2018-04-30T02:13:22.816Z,16.08
2018-04-30T02:14:22.817Z,16.02
2018-04-30T02:15:22.818Z,16.08
2018-04-30T02:16:22.899Z,16.05
2018-04-30T02:17:22.810Z,16.04
2018-04-30T02:18:22.811Z,16.08
2018-04-30T02:19:22.845Z,16.09
2018-04-30T02:20:22.762Z,16.12
2018-04-30T02:21:22.806Z,16.11
2018-04-30T02:22:22.798Z,16.09
2018-04-30T02:23:22.819Z,16.12
2018-04-30T02:24:22.826Z,16.07
2018-04-30T02:25:22.831Z,16.07
2018-04-30T02:26:22.774Z,16.07
2018-04-30T02:27:22.816Z,16.01
2018-04-30T02:28:22.833Z,16.01
2018-04-30T02:29:22.854Z,16.02
2018-04-30T02:30:22.838Z,16.01
2018-04-30T02:31:22.831Z,16.04
2018-04-30T02:32:22.797Z,16.07
2018-04-30T02:33:22.791Z,16.05
2018-04-30T02:34:22.864Z,16.05
2018-04-30T02:35:22.824Z,16.02
2018-04-30T02:36:22.830Z,16.05
2018-04-30T02:37:22.818Z,16.05
2018-04-30T02:38:22.855Z,16.05
2018-04-30T02:39:22.822Z,16.05
2018-04-30T02:40:22.893Z,16.02
2018-04-30T02:41:22.819Z,15.98
2018-04-30T02:42:22.797Z,15.95
2018-04-30T02:43:22.838Z,15.99
2018-04-30T02:44:22.923Z,16.01
2018-04-30T02:45:22.859Z,15.99
2018-04-30T02:46:22.861Z,15.99
2018-04-30T02:47:22.800Z,15.91
2018-04-30T02:48:22.845Z,15.9
2018-04-30T02:49:22.862Z,15.9
2018-04-30T02:50:22.990Z,15.9
2018-04-30T02:51:22.847Z,15.88
2018-04-30T02:52:22.860Z,15.9
2018-04-30T02:53:22.840Z,15.85
2018-04-30T02:54:22.926Z,15.76
2018-04-30T02:55:22.878Z,15.7
2018-04-30T02:56:22.818Z,15.74
2018-04-30T02:57:22.824Z,15.69
2018-04-30T02:58:22.859Z,15.59
2018-04-30T02:59:22.853Z,15.47
2018-04-30T03:00:22.863Z,15.46
2018-04-30T03:01:22.920Z,15.47
2018-04-30T03:02:22.855Z,15.42
2018-04-30T03:03:22.844Z,15.43
2018-04-30T03:04:22.858Z,15.42
2018-04-30T03:05:22.893Z,15.41
2018-04-30T03:06:22.886Z,15.47
2018-04-30T03:07:22.972Z,15.49
2018-04-30T03:08:22.855Z,15.32
2018-04-30T03:09:22.817Z,15.39
2018-04-30T03:10:22.874Z,15.32
2018-04-30T03:11:22.858Z,15.39
2018-04-30T03:12:22.833Z,15.42
2018-04-30T03:13:22.868Z,15.38
2018-04-30T03:14:22.806Z,15.39
2018-04-30T03:15:22.892Z,15.36
2018-04-30T03:16:22.861Z,15.34
2018-04-30T03:17:22.861Z,15.29
2018-04-30T03:18:22.876Z,15.31
2018-04-30T03:19:22.952Z,15.31
2018-04-30T03:20:23.139Z,15.29
2018-04-30T03:21:22.907Z,15.28
2018-04-30T03:22:22.834Z,15.28
2018-04-30T03:23:22.850Z,15.35
2018-04-30T03:24:22.884Z,15.38
2018-04-30T03:25:22.837Z,15.41
2018-04-30T03:26:22.872Z,15.45
2018-04-30T03:27:23.084Z,15.36
2018-04-30T03:28:22.840Z,15.35
2018-04-30T03:29:22.900Z,15.31
2018-04-30T03:30:22.867Z,15.22
2018-04-30T03:31:22.831Z,15.26
2018-04-30T03:32:22.829Z,15.22
2018-04-30T03:33:22.875Z,15.25
2018-04-30T03:34:22.851Z,15.15
2018-04-30T03:35:22.899Z,15.08
2018-04-30T03:36:22.824Z,15.08
2018-04-30T03:37:22.871Z,15.11
2018-04-30T03:38:22.812Z,15.14
2018-04-30T03:39:22.903Z,15.17
2018-04-30T03:40:22.816Z,15.12
2018-04-30T03:41:22.831Z,15.17
2018-04-30T03:42:22.828Z,15.09
2018-04-30T03:43:22.824Z,15.09
2018-04-30T03:44:22.814Z,15.05
2018-04-30T03:45:22.835Z,15.02
2018-04-30T03:46:22.831Z,14.97
2018-04-30T03:47:22.818Z,14.95
2018-04-30T03:48:23.120Z,14.97
2018-04-30T03:49:22.823Z,14.91
2018-04-30T03:50:22.846Z,14.81
2018-04-30T03:51:22.825Z,14.73
2018-04-30T03:52:22.881Z,14.76
2018-04-30T03:53:23.010Z,14.77
2018-04-30T03:54:22.806Z,14.87
2018-04-30T03:55:22.874Z,14.9
2018-04-30T03:56:22.822Z,14.83
2018-04-30T03:57:22.823Z,14.87
2018-04-30T03:58:22.878Z,14.92
2018-04-30T03:59:22.953Z,14.91
2018-04-30T04:00:22.888Z,14.95
2018-04-30T04:01:22.892Z,14.97
2018-04-30T04:02:22.919Z,14.94
2018-04-30T04:03:22.875Z,14.98
2018-04-30T04:04:23.025Z,14.92
2018-04-30T04:05:22.846Z,14.9
2018-04-30T04:06:22.880Z,14.83
2018-04-30T04:07:22.831Z,14.8
2018-04-30T04:08:22.848Z,14.74
2018-04-30T04:09:22.836Z,14.73
2018-04-30T04:10:22.834Z,14.79
2018-04-30T04:11:22.863Z,14.79
2018-04-30T04:12:22.828Z,14.66
2018-04-30T04:13:22.946Z,14.67
2018-04-30T04:14:22.855Z,14.72
2018-04-30T04:15:22.848Z,14.8
2018-04-30T04:16:22.843Z,14.8
2018-04-30T04:17:22.904Z,14.77
2018-04-30T04:18:22.858Z,14.83
2018-04-30T04:19:22.947Z,14.86
2018-04-30T04:20:22.931Z,14.81
2018-04-30T04:21:22.833Z,14.79
2018-04-30T04:22:22.877Z,14.74
2018-04-30T04:23:22.856Z,14.76
2018-04-30T04:24:22.889Z,14.8
2018-04-30T04:25:22.875Z,14.8
2018-04-30T04:26:22.838Z,14.8
2018-04-30T04:27:22.909Z,14.8
2018-04-30T04:28:22.981Z,14.79
2018-04-30T04:29:22.851Z,14.79
2018-04-30T04:30:22.952Z,14.79
2018-04-30T04:31:22.895Z,14.79
2018-04-30T04:32:22.969Z,14.77
2018-04-30T04:33:22.864Z,14.76
2018-04-30T04:34:22.857Z,14.76
2018-04-30T04:35:22.832Z,14.79
2018-04-30T04:36:22.989Z,14.79
2018-04-30T04:37:22.818Z,14.8
2018-04-30T04:38:22.905Z,14.76
2018-04-30T04:39:23.081Z,14.76
2018-04-30T04:40:22.859Z,14.76
2018-04-30T04:41:22.911Z,14.76
2018-04-30T04:42:22.836Z,14.76
2018-04-30T04:43:22.861Z,14.74
2018-04-30T04:44:22.900Z,14.76
2018-04-30T04:45:22.877Z,14.73
2018-04-30T04:46:22.866Z,14.73
2018-04-30T04:47:22.980Z,14.72
2018-04-30T04:48:22.864Z,14.72
2018-04-30T04:49:22.856Z,14.7
2018-04-30T04:50:22.917Z,14.7
2018-04-30T04:51:22.870Z,14.67
2018-04-30T04:52:22.929Z,14.7
2018-04-30T04:53:22.880Z,14.64
2018-04-30T04:54:22.853Z,14.59
2018-04-30T04:55:22.868Z,14.6
2018-04-30T04:56:22.891Z,14.6
2018-04-30T04:57:22.881Z,14.59
2018-04-30T04:58:22.863Z,14.6
2018-04-30T04:59:22.858Z,14.59
2018-04-30T05:00:22.879Z,14.59
2018-04-30T05:01:22.855Z,14.59
2018-04-30T05:02:23.170Z,14.58
2018-04-30T05:03:22.850Z,14.55
2018-04-30T05:04:23.022Z,14.56
2018-04-30T05:05:22.884Z,14.52
2018-04-30T05:06:22.936Z,14.48
2018-04-30T05:07:22.893Z,14.48
2018-04-30T05:08:22.894Z,14.49
2018-04-30T05:09:22.904Z,14.49
2018-04-30T05:10:22.904Z,14.46
2018-04-30T05:11:22.846Z,14.45
2018-04-30T05:12:22.884Z,14.39
2018-04-30T05:13:22.853Z,14.42
2018-04-30T05:14:22.879Z,14.43
2018-04-30T05:15:22.939Z,14.4
2018-04-30T05:16:22.912Z,14.43
2018-04-30T05:17:22.905Z,14.43
2018-04-30T05:18:23.033Z,14.43
2018-04-30T05:19:22.894Z,14.42
2018-04-30T05:20:22.883Z,14.42
2018-04-30T05:21:22.888Z,14.4
2018-04-30T05:22:22.929Z,14.42
2018-04-30T05:23:23.240Z,14.42
2018-04-30T05:24:22.981Z,14.42
2018-04-30T05:25:22.973Z,14.4
2018-04-30T05:26:22.903Z,14.36
2018-04-30T05:27:22.921Z,14.38
2018-04-30T05:28:22.937Z,14.38
2018-04-30T05:29:22.863Z,14.4
2018-04-30T05:30:22.918Z,14.35
2018-04-30T05:31:22.959Z,14.35
2018-04-30T05:32:22.916Z,14.29
2018-04-30T05:33:22.883Z,14.33
2018-04-30T05:34:22.910Z,14.35
2018-04-30T05:35:22.933Z,14.25
2018-04-30T05:36:22.899Z,14.24
2018-04-30T05:37:22.914Z,14.24
2018-04-30T05:38:22.909Z,14.18
2018-04-30T05:39:22.914Z,14.22
2018-04-30T05:40:22.887Z,14.24
2018-04-30T05:41:22.910Z,14.24
2018-04-30T05:42:22.938Z,14.19
2018-04-30T05:43:22.889Z,14.22
2018-04-30T05:44:23.289Z,14.17
2018-04-30T05:45:22.935Z,14.15
2018-04-30T05:46:22.895Z,14.14
2018-04-30T05:47:22.867Z,14.08
2018-04-30T05:48:22.955Z,13.91
2018-04-30T05:49:22.969Z,13.91
2018-04-30T05:50:22.880Z,13.94
2018-04-30T05:51:22.901Z,13.97
2018-04-30T05:52:22.877Z,13.98
2018-04-30T05:53:22.910Z,13.89
2018-04-30T05:54:22.883Z,13.87
2018-04-30T05:55:22.928Z,13.9
2018-04-30T05:56:22.874Z,13.97
2018-04-30T05:57:22.915Z,14.02
2018-04-30T05:58:22.911Z,14.02
2018-04-30T05:59:22.895Z,14.05
2018-04-30T06:00:22.963Z,14.1
2018-04-30T06:01:22.935Z,14.14
2018-04-30T06:02:23.001Z,14.17
2018-04-30T06:03:22.920Z,14.12
2018-04-30T06:04:23.328Z,14.14
2018-04-30T06:05:23.027Z,14.1
2018-04-30T06:06:22.949Z,14.04
2018-04-30T06:07:22.905Z,14.07
2018-04-30T06:08:22.905Z,14.12
2018-04-30T06:09:22.924Z,14.12
2018-04-30T06:10:22.933Z,14.11
2018-04-30T06:11:22.884Z,14.02
2018-04-30T06:12:22.912Z,14.05
2018-04-30T06:13:22.921Z,14.05
2018-04-30T06:14:22.924Z,14.05
2018-04-30T06:15:22.932Z,14.1
2018-04-30T06:16:22.883Z,14.01
2018-04-30T06:17:23.215Z,14.02
2018-04-30T06:18:22.898Z,14.1
2018-04-30T06:19:22.886Z,14.08
2018-04-30T06:20:22.903Z,14.1
2018-04-30T06:21:22.927Z,14.11
2018-04-30T06:22:22.950Z,14.07
2018-04-30T06:23:22.909Z,14.05
2018-04-30T06:24:22.918Z,14
2018-04-30T06:25:22.889Z,14.07
2018-04-30T06:26:22.927Z,14.07
2018-04-30T06:27:22.918Z,14.08
2018-04-30T06:28:22.919Z,14.12
2018-04-30T06:29:22.892Z,14.04
2018-04-30T06:30:22.933Z,14.02
2018-04-30T06:31:22.948Z,14.04
2018-04-30T06:32:24.352Z,14.05
2018-04-30T06:33:22.919Z,14.05
2018-04-30T06:34:22.888Z,13.98
2018-04-30T06:35:22.938Z,14.04
2018-04-30T06:36:22.894Z,13.98
2018-04-30T06:37:22.973Z,13.96
2018-04-30T06:38:23.257Z,13.93
2018-04-30T06:39:22.958Z,13.96
2018-04-30T06:40:22.907Z,13.98
2018-04-30T06:41:22.905Z,14.07
2018-04-30T06:42:22.937Z,14.07
2018-04-30T06:43:22.975Z,14.05
2018-04-30T06:44:22.998Z,14.04
2018-04-30T06:45:22.953Z,14.07
2018-04-30T06:46:22.933Z,14.08
2018-04-30T06:47:22.909Z,14.08
2018-04-30T06:48:22.921Z,14.11
2018-04-30T06:49:23.068Z,14.11
2018-04-30T06:50:23.019Z,14.12
2018-04-30T06:51:22.917Z,14.11
2018-04-30T06:52:22.981Z,14.1
2018-04-30T06:53:22.991Z,13.97
2018-04-30T06:54:22.970Z,14
2018-04-30T06:55:22.998Z,13.98
2018-04-30T06:56:22.898Z,13.93
2018-04-30T06:57:22.889Z,13.97
2018-04-30T06:58:22.928Z,14.02
2018-04-30T06:59:22.927Z,14.14
2018-04-30T07:00:23.208Z,14.24
2018-04-30T07:01:22.929Z,14.29
2018-04-30T07:02:22.952Z,14.33
2018-04-30T07:03:22.922Z,14.39
2018-04-30T07:04:22.912Z,14.43
2018-04-30T07:05:23.062Z,14.45
2018-04-30T07:06:22.905Z,14.43
2018-04-30T07:07:22.955Z,14.48
2018-04-30T07:08:22.904Z,14.43
2018-04-30T07:09:23.155Z,14.49
2018-04-30T07:10:23.001Z,14.39
2018-04-30T07:11:22.963Z,14.43
2018-04-30T07:12:22.913Z,14.49
2018-04-30T07:13:22.932Z,14.38
2018-04-30T07:14:22.953Z,14.39
2018-04-30T07:15:22.933Z,14.4
2018-04-30T07:16:22.913Z,14.45
2018-04-30T07:17:23.221Z,14.43
2018-04-30T07:18:22.928Z,14.48
2018-04-30T07:19:22.940Z,14.58
2018-04-30T07:20:22.911Z,14.62
2018-04-30T07:21:22.935Z,14.58
2018-04-30T07:22:22.946Z,14.53
2018-04-30T07:23:22.957Z,14.58
2018-04-30T07:24:22.923Z,14.67
2018-04-30T07:25:22.929Z,14.72
2018-04-30T07:26:23.001Z,14.74
2018-04-30T07:27:22.934Z,14.79
2018-04-30T07:28:22.952Z,14.74
2018-04-30T07:29:22.950Z,14.74
2018-04-30T07:30:22.926Z,14.63
2018-04-30T07:31:22.946Z,14.59
2018-04-30T07:32:22.923Z,14.55
2018-04-30T07:33:22.949Z,14.58
2018-04-30T07:34:22.926Z,14.66
2018-04-30T07:35:22.961Z,14.7
2018-04-30T07:36:23.003Z,14.7
2018-04-30T07:37:22.945Z,14.81
2018-04-30T07:38:22.994Z,14.94
2018-04-30T07:39:22.938Z,15.01
2018-04-30T07:40:22.928Z,15.02
2018-04-30T07:41:22.920Z,15.01
2018-04-30T07:42:22.953Z,15.08
2018-04-30T07:43:22.998Z,14.97
2018-04-30T07:44:22.953Z,15
2018-04-30T07:45:22.955Z,14.97
2018-04-30T07:46:22.971Z,14.95
2018-04-30T07:47:23.026Z,15.05
2018-04-30T07:48:23.036Z,15.14
2018-04-30T07:49:23.143Z,15.19
2018-04-30T07:50:23.210Z,15.26
2018-04-30T07:51:23.048Z,15.32
2018-04-30T07:52:22.957Z,15.26
2018-04-30T07:53:23.149Z,15.21
2018-04-30T07:54:22.953Z,15.26
2018-04-30T07:55:23.009Z,15.31
2018-04-30T07:56:23.046Z,15.14
2018-04-30T07:57:23.148Z,15.17
2018-04-30T07:58:22.924Z,15.14
2018-04-30T07:59:23.000Z,15.07
2018-04-30T08:00:22.983Z,15.11
2018-04-30T08:01:23.037Z,15.17
2018-04-30T08:02:22.979Z,15.17
2018-04-30T08:03:22.946Z,15.17
2018-04-30T08:04:22.955Z,15.26
2018-04-30T08:05:22.974Z,15.29
2018-04-30T08:06:22.950Z,15.26
2018-04-30T08:07:22.968Z,15.26
2018-04-30T08:08:22.964Z,15.23
2018-04-30T08:09:22.927Z,15.15
2018-04-30T08:10:22.941Z,15.14
2018-04-30T08:11:23.037Z,15.11
2018-04-30T08:12:22.990Z,15.11
2018-04-30T08:13:22.927Z,15.07
2018-04-30T08:14:22.956Z,15.08
2018-04-30T08:15:22.947Z,15.08
2018-04-30T08:16:23.030Z,15.12
2018-04-30T08:17:22.989Z,15.21
2018-04-30T08:18:22.981Z,15.34
2018-04-30T08:19:22.960Z,15.41
2018-04-30T08:20:22.966Z,15.54
2018-04-30T08:21:23.022Z,15.62
2018-04-30T08:22:22.958Z,15.64
2018-04-30T08:23:23.004Z,15.6
2018-04-30T08:24:23.007Z,15.62
2018-04-30T08:25:23.015Z,15.56
2018-04-30T08:26:23.154Z,15.53
2018-04-30T08:27:22.958Z,15.67
2018-04-30T08:28:22.927Z,15.82
2018-04-30T08:29:22.938Z,15.88
2018-04-30T08:30:22.961Z,15.92
2018-04-30T08:31:23.003Z,15.97
2018-04-30T08:32:22.947Z,15.94
2018-04-30T08:33:22.953Z,16.04
2018-04-30T08:34:22.991Z,16.11
2018-04-30T08:35:23.017Z,16.07
2018-04-30T08:36:22.957Z,16.09
2018-04-30T08:37:22.959Z,16.04
2018-04-30T08:38:22.966Z,15.98
2018-04-30T08:39:23.013Z,16.01
2018-04-30T08:40:22.997Z,16.12
2018-04-30T08:41:22.965Z,16.15
2018-04-30T08:42:22.961Z,16.26
2018-04-30T08:43:22.961Z,16.36
2018-04-30T08:44:23.303Z,16.45
2018-04-30T08:45:23.157Z,16.54
2018-04-30T08:46:23.302Z,16.64
2018-04-30T08:47:23.458Z,16.67
2018-04-30T08:48:23.299Z,16.74
2018-04-30T08:49:23.560Z,16.73
2018-04-30T08:50:24.398Z,16.77
2018-04-30T08:51:23.608Z,16.68
2018-04-30T08:52:22.952Z,16.74
2018-04-30T08:53:23.026Z,16.64
2018-04-30T08:54:22.962Z,16.63
2018-04-30T08:55:22.967Z,16.46
2018-04-30T08:56:23.697Z,16.46
2018-04-30T08:57:22.989Z,16.4
2018-04-30T08:58:22.996Z,16.31
2018-04-30T08:59:22.983Z,16.29
2018-04-30T09:00:23.334Z,16.28
2018-04-30T09:01:23.317Z,16.29
2018-04-30T09:02:23.033Z,16.39
2018-04-30T09:03:23.012Z,16.47
2018-04-30T09:04:23.004Z,16.54
2018-04-30T09:05:22.978Z,16.6
2018-04-30T09:06:22.998Z,16.52
2018-04-30T09:07:22.964Z,16.57
2018-04-30T09:08:22.968Z,16.64
2018-04-30T09:09:22.999Z,16.7
2018-04-30T09:10:22.978Z,16.75
2018-04-30T09:11:23.160Z,16.7
2018-04-30T09:12:22.989Z,16.67
2018-04-30T09:13:22.968Z,16.54
2018-04-30T09:14:22.968Z,16.46
2018-04-30T09:15:23.116Z,16.52
2018-04-30T09:16:25.948Z,16.54
2018-04-30T09:17:22.977Z,16.54
2018-04-30T09:18:24.376Z,16.43
2018-04-30T09:19:22.990Z,16.42
2018-04-30T09:20:23.103Z,16.5
2018-04-30T09:21:22.982Z,16.52
2018-04-30T09:22:23.010Z,16.57
2018-04-30T09:23:23.809Z,16.62
2018-04-30T09:24:23.005Z,16.54
2018-04-30T09:25:23.021Z,16.52
2018-04-30T09:26:23.050Z,16.56
2018-04-30T09:27:23.004Z,16.57
2018-04-30T09:28:23.030Z,16.57
2018-04-30T09:29:23.004Z,16.68
2018-04-30T09:30:23.075Z,16.81
2018-04-30T09:31:23.021Z,16.94
2018-04-30T09:32:23.032Z,16.98
2018-04-30T09:33:23.006Z,16.97
2018-04-30T09:34:23.013Z,16.92
2018-04-30T09:35:23.173Z,17.07
2018-04-30T09:36:23.086Z,17.19
2018-04-30T09:37:23.032Z,17.27
2018-04-30T09:38:23.029Z,17.32
2018-04-30T09:39:23.011Z,17.37
2018-04-30T09:40:22.999Z,17.35
2018-04-30T09:41:23.031Z,17.27
2018-04-30T09:42:22.995Z,17.3
2018-04-30T09:43:23.080Z,17.39
2018-04-30T09:44:22.980Z,17.42
2018-04-30T09:45:23.000Z,17.36
2018-04-30T09:46:23.041Z,17.26
2018-04-30T09:47:23.013Z,17.29
2018-04-30T09:48:23.056Z,17.35
2018-04-30T09:49:22.989Z,17.36
2018-04-30T09:50:22.986Z,17.49
2018-04-30T09:51:22.991Z,17.54
2018-04-30T09:52:23.029Z,17.6
2018-04-30T09:53:22.998Z,17.63
2018-04-30T09:54:23.030Z,17.66
2018-04-30T09:55:23.073Z,17.69
2018-04-30T09:56:22.985Z,17.63
2018-04-30T09:57:23.027Z,17.66
2018-04-30T09:58:22.995Z,17.57
2018-04-30T09:59:23.134Z,17.61
2018-04-30T10:00:22.985Z,17.67
2018-04-30T10:01:22.993Z,17.73
2018-04-30T10:02:23.005Z,17.78
2018-04-30T10:03:22.991Z,17.85
2018-04-30T10:04:22.999Z,17.92
2018-04-30T10:05:23.050Z,17.95
2018-04-30T10:06:23.162Z,18.01
2018-04-30T10:07:23.242Z,17.95
2018-04-30T10:08:22.997Z,17.94
2018-04-30T10:09:23.026Z,18.04
2018-04-30T10:10:23.002Z,17.87
2018-04-30T10:11:23.027Z,17.56
2018-04-30T10:12:23.105Z,17.52
2018-04-30T10:13:22.998Z,17.57
2018-04-30T10:14:23.111Z,17.56
2018-04-30T10:15:23.022Z,17.36
2018-04-30T10:16:23.022Z,17.39
2018-04-30T10:17:23.142Z,17.4
2018-04-30T10:18:23.065Z,17.46
2018-04-30T10:19:22.996Z,17.49
2018-04-30T10:20:22.999Z,17.56
2018-04-30T10:21:22.999Z,17.7
2018-04-30T10:22:23.033Z,17.77
2018-04-30T10:23:23.280Z,17.77
2018-04-30T10:24:23.005Z,17.78
2018-04-30T10:25:23.166Z,17.7
2018-04-30T10:26:23.048Z,17.71
2018-04-30T10:27:23.029Z,17.63
2018-04-30T10:28:23.022Z,17.73
2018-04-30T10:29:23.039Z,17.81
2018-04-30T10:30:23.037Z,17.82
2018-04-30T10:31:23.071Z,17.89
2018-04-30T10:32:23.012Z,17.88
2018-04-30T10:33:23.066Z,18.01
2018-04-30T10:34:23.074Z,17.99
2018-04-30T10:35:23.057Z,18.06
2018-04-30T10:36:23.079Z,18.12
2018-04-30T10:37:23.084Z,18.25
2018-04-30T10:38:23.078Z,18.33
2018-04-30T10:39:23.072Z,18.26
2018-04-30T10:40:23.081Z,18.25
2018-04-30T10:41:23.049Z,18.26
2018-04-30T10:42:23.109Z,18.3
2018-04-30T10:43:23.169Z,18.32
2018-04-30T10:44:23.555Z,18.39
2018-04-30T10:45:23.096Z,18.47
2018-04-30T10:46:23.097Z,18.43
2018-04-30T10:47:23.071Z,18.52
2018-04-30T10:48:23.059Z,18.6
2018-04-30T10:49:23.063Z,18.67
2018-04-30T10:50:23.081Z,18.68
2018-04-30T10:51:23.144Z,18.8
2018-04-30T10:52:23.094Z,18.77
2018-04-30T10:53:23.642Z,18.8
2018-04-30T10:54:23.700Z,18.81
2018-04-30T10:55:23.036Z,18.84
2018-04-30T10:56:24.241Z,18.94
2018-04-30T10:57:23.066Z,18.98
2018-04-30T10:58:23.072Z,18.98
2018-04-30T10:59:23.033Z,18.94
2018-04-30T11:00:23.048Z,18.75
2018-04-30T11:01:23.035Z,18.57
2018-04-30T11:02:23.043Z,18.49
2018-04-30T11:03:23.200Z,18.47
2018-04-30T11:04:23.037Z,18.39
2018-04-30T11:05:23.161Z,18.3
2018-04-30T11:06:23.048Z,18.25
2018-04-30T11:07:23.070Z,18.29
2018-04-30T11:08:23.107Z,18.23
2018-04-30T11:09:23.060Z,18.32
2018-04-30T11:10:23.043Z,18.4
2018-04-30T11:11:23.043Z,18.43
2018-04-30T11:12:23.215Z,18.4
2018-04-30T11:13:23.053Z,18.37
2018-04-30T11:14:23.083Z,18.3
2018-04-30T11:15:23.058Z,18.17
2018-04-30T11:16:23.065Z,18.16
2018-04-30T11:17:23.075Z,18.19
2018-04-30T11:18:23.202Z,18.13
2018-04-30T11:19:23.832Z,18.08
2018-04-30T11:20:23.153Z,18.04
2018-04-30T11:21:24.013Z,17.89
2018-04-30T11:22:23.074Z,17.82
2018-04-30T11:23:23.078Z,17.74
2018-04-30T11:24:23.184Z,17.69
2018-04-30T11:25:23.195Z,17.67
2018-04-30T11:26:23.062Z,17.7
2018-04-30T11:27:23.040Z,17.69
2018-04-30T11:28:25.290Z,17.78
2018-04-30T11:29:23.084Z,17.82
2018-04-30T11:30:23.130Z,17.94
2018-04-30T11:31:23.472Z,18.11
2018-04-30T11:32:23.065Z,18.26
2018-04-30T11:33:23.068Z,18.39
2018-04-30T11:34:23.082Z,18.52
2018-04-30T11:35:23.283Z,18.56
2018-04-30T11:36:23.905Z,18.59
2018-04-30T11:37:23.087Z,18.59
2018-04-30T11:38:23.093Z,18.57
2018-04-30T11:39:23.151Z,18.59
2018-04-30T11:40:23.118Z,18.7
2018-04-30T11:41:23.127Z,18.75
2018-04-30T11:42:23.111Z,18.77
2018-04-30T11:43:23.057Z,18.68
2018-04-30T11:44:23.059Z,18.68
2018-04-30T11:45:23.666Z,18.71
2018-04-30T11:46:23.550Z,18.68
2018-04-30T11:47:23.105Z,18.78
2018-04-30T11:48:23.111Z,18.82
2018-04-30T11:49:23.121Z,18.91
2018-04-30T11:50:23.093Z,18.64
2018-04-30T11:51:23.124Z,18.67
2018-04-30T11:52:23.085Z,18.68
2018-04-30T11:53:23.139Z,18.68
2018-04-30T11:54:23.931Z,18.8
2018-04-30T11:55:23.115Z,18.84
2018-04-30T11:56:23.114Z,18.74
2018-04-30T11:57:23.159Z,18.88
2018-04-30T11:58:28.710Z,18.95
2018-04-30T11:59:23.091Z,18.99
2018-04-30T12:00:23.365Z,18.88
2018-04-30T12:01:24.111Z,18.85
2018-04-30T12:02:24.100Z,18.98
2018-04-30T12:03:23.162Z,19.03
2018-04-30T12:04:23.078Z,19.02
2018-04-30T12:05:23.126Z,19.03
2018-04-30T12:06:23.104Z,18.97
2018-04-30T12:07:23.097Z,18.97
2018-04-30T12:08:23.093Z,18.94
2018-04-30T12:09:23.112Z,18.87
2018-04-30T12:10:23.112Z,18.88
2018-04-30T12:11:23.116Z,18.77
2018-04-30T12:12:23.096Z,18.75
2018-04-30T12:13:23.128Z,18.7
2018-04-30T12:14:23.534Z,18.71
2018-04-30T12:15:23.124Z,18.71
2018-04-30T12:16:23.177Z,18.75
2018-04-30T12:17:23.114Z,18.74
2018-04-30T12:18:23.147Z,18.6
2018-04-30T12:19:23.123Z,18.53
2018-04-30T12:20:23.131Z,18.56
2018-04-30T12:21:23.123Z,18.53
2018-04-30T12:22:23.149Z,18.59
2018-04-30T12:23:23.110Z,18.6
2018-04-30T12:24:23.144Z,18.68
2018-04-30T12:25:23.123Z,18.66
2018-04-30T12:26:23.115Z,18.54
2018-04-30T12:27:23.121Z,18.7
2018-04-30T12:28:23.141Z,18.78
2018-04-30T12:29:23.165Z,18.84
2018-04-30T12:30:23.141Z,18.88
2018-04-30T12:31:24.286Z,18.87
2018-04-30T12:32:23.317Z,18.81
2018-04-30T12:33:23.162Z,18.78
2018-04-30T12:34:23.137Z,18.75
2018-04-30T12:35:23.179Z,18.75
2018-04-30T12:36:23.150Z,18.71
2018-04-30T12:37:23.117Z,18.7
2018-04-30T12:38:23.123Z,18.85
2018-04-30T12:39:23.629Z,18.97
2018-04-30T12:40:24.583Z,18.99
2018-04-30T12:41:23.162Z,19.16
2018-04-30T12:42:23.113Z,19.21
2018-04-30T12:43:23.152Z,19.09
2018-04-30T12:44:23.159Z,19.19
2018-04-30T12:45:23.326Z,19.26
2018-04-30T12:46:23.192Z,19.36
2018-04-30T12:47:23.185Z,19.36
2018-04-30T12:48:23.313Z,19.25
2018-04-30T12:49:24.458Z,19.32
2018-04-30T12:50:23.156Z,19.4
2018-04-30T12:51:23.319Z,19.51
2018-04-30T12:52:23.294Z,19.6
2018-04-30T12:53:23.137Z,19.53
2018-04-30T12:54:23.370Z,19.46
2018-04-30T12:55:24.348Z,19.39